Etusivu
METAR-TAF:

METAR-TAF

Lentoasemat :

Norwich, Englanti

Leveyspiiri: 52-38N, Pituuspiiri: 001-18E, korkeus merenpinnasta: 14 m

Tämänhetkinen sää

Tämä raportti tehtiin 40 minuuttia sitten, kello 20.50 UTC
Tuuli 8 kn lännestä
Lämpötila 5°C
Kosteus 87%
Ilmanpaine 1015 hPa
Näkyvyys 10 km tai enemmän
Muutamia pilviä 2000 ft:n korkeudessa
Hajanaisia pilviä 2500 ft:n korkeudessa
Hajonneita pilviä 3700 ft:n korkeudessa

METAR: EGSH 182050Z 28008KT 9999 FEW020 SCT025 BKN037 05/03 Q1015 NOSIG

Aika: 21:30 (21:30 UTC)

Sääennuste

Tämä raportti tehtiin 1 tunti ja 33 minuuttia sitten, kello 19.57 UTC
Ennuste voimassa 18. päivästä klo 21 UTC - 18. päivään klo 24 UTC
Tuuli 6 kn lännestä/luoteesta
Näkyvyys 10 km tai enemmän
Muutamia pilviä 3000 ft:n korkeudessa

TAF: EGSH 181957Z 1821/1824 29006KT 9999 FEW030

Säähavainnot ja -ennusteet yli 4000 lentoasemalta (METAR- ja TAF-raportit).

Käytössä olevat sääasemat on merkitty karttaan keltaisilla ja punaisilla pisteillä.

Aseta hiiri pisteen päälle nähdäksesi sääaseman nimen.

Klikkaa sitten nähdäksesi säähavainnot ja -ennusteet.

Kartan vaihtaminen: klikkaa mustalla rastilla varustettuja vihreitä pisteitä, niin voit zoomata sisään; viivalla varustettua vihreää pistettä, niin voit zoomata ulos tai vihreitä nuolia, niin pääset viereisille kartoille.


METAR-TAF: